sensor_id;sensor_type;location;lat;lon;timestamp;temperature;humidity
19586;DHT22;9939;49.246;9.106;2022-07-23T00:00:27;22.80;99.90
19586;DHT22;9939;49.246;9.106;2022-07-23T00:02:59;22.60;99.90
19586;DHT22;9939;49.246;9.106;2022-07-23T00:05:26;22.60;99.90
19586;DHT22;9939;49.246;9.106;2022-07-23T00:07:53;22.70;99.90
19586;DHT22;9939;49.246;9.106;2022-07-23T00:10:20;22.80;99.90
19586;DHT22;9939;49.246;9.106;2022-07-23T00:12:47;22.70;99.90
19586;DHT22;9939;49.246;9.106;2022-07-23T00:15:18;22.50;99.90
19586;DHT22;9939;49.246;9.106;2022-07-23T00:17:45;22.40;99.90
19586;DHT22;9939;49.246;9.106;2022-07-23T00:20:12;22.40;99.90
19586;DHT22;9939;49.246;9.106;2022-07-23T00:22:50;22.60;99.90
19586;DHT22;9939;49.246;9.106;2022-07-23T00:25:18;22.50;99.90
19586;DHT22;9939;49.246;9.106;2022-07-23T00:27:59;22.60;99.90
19586;DHT22;9939;49.246;9.106;2022-07-23T00:30:27;22.70;99.90
19586;DHT22;9939;49.246;9.106;2022-07-23T00:32:59;22.60;99.90
19586;DHT22;9939;49.246;9.106;2022-07-23T00:35:30;22.40;99.90
19586;DHT22;9939;49.246;9.106;2022-07-23T00:37:58;22.60;99.90
19586;DHT22;9939;49.246;9.106;2022-07-23T00:40:26;22.50;99.90
19586;DHT22;9939;49.246;9.106;2022-07-23T00:42:53;22.50;99.90
19586;DHT22;9939;49.246;9.106;2022-07-23T00:45:21;22.40;99.90
19586;DHT22;9939;49.246;9.106;2022-07-23T00:47:48;22.20;99.90
19586;DHT22;9939;49.246;9.106;2022-07-23T00:50:15;22.20;99.90
19586;DHT22;9939;49.246;9.106;2022-07-23T00:52:42;22.20;99.90
19586;DHT22;9939;49.246;9.106;2022-07-23T00:55:11;22.20;99.90
19586;DHT22;9939;49.246;9.106;2022-07-23T00:57:38;22.00;99.90
19586;DHT22;9939;49.246;9.106;2022-07-23T01:00:08;22.10;99.90
19586;DHT22;9939;49.246;9.106;2022-07-23T01:02:37;22.00;99.90
19586;DHT22;9939;49.246;9.106;2022-07-23T01:05:04;22.10;99.90
19586;DHT22;9939;49.246;9.106;2022-07-23T01:07:33;22.00;99.90
19586;DHT22;9939;49.246;9.106;2022-07-23T01:10:00;22.00;99.90
19586;DHT22;9939;49.246;9.106;2022-07-23T01:12:29;21.90;99.90
19586;DHT22;9939;49.246;9.106;2022-07-23T01:14:57;21.70;99.90
19586;DHT22;9939;49.246;9.106;2022-07-23T01:17:26;21.70;99.90
19586;DHT22;9939;49.246;9.106;2022-07-23T01:19:54;21.70;99.90
19586;DHT22;9939;49.246;9.106;2022-07-23T01:22:21;21.70;99.90
19586;DHT22;9939;49.246;9.106;2022-07-23T01:24:47;21.70;99.90
19586;DHT22;9939;49.246;9.106;2022-07-23T01:27:21;21.70;99.90
19586;DHT22;9939;49.246;9.106;2022-07-23T01:29:51;21.60;99.90
19586;DHT22;9939;49.246;9.106;2022-07-23T01:32:21;21.60;99.90
19586;DHT22;9939;49.246;9.106;2022-07-23T01:34:48;21.50;99.90
19586;DHT22;9939;49.246;9.106;2022-07-23T01:37:14;21.70;99.90
19586;DHT22;9939;49.246;9.106;2022-07-23T01:39:42;21.80;99.90
19586;DHT22;9939;49.246;9.106;2022-07-23T01:42:09;21.90;99.90
19586;DHT22;9939;49.246;9.106;2022-07-23T01:44:36;21.90;99.90
19586;DHT22;9939;49.246;9.106;2022-07-23T01:47:04;21.90;99.90
19586;DHT22;9939;49.246;9.106;2022-07-23T01:49:31;21.90;99.90
19586;DHT22;9939;49.246;9.106;2022-07-23T01:52:18;21.90;99.90
19586;DHT22;9939;49.246;9.106;2022-07-23T01:54:48;21.90;99.90
19586;DHT22;9939;49.246;9.106;2022-07-23T01:57:16;21.80;99.90
19586;DHT22;9939;49.246;9.106;2022-07-23T01:59:43;21.90;99.90
19586;DHT22;9939;49.246;9.106;2022-07-23T02:02:10;22.10;99.90
19586;DHT22;9939;49.246;9.106;2022-07-23T02:04:37;22.00;99.90
19586;DHT22;9939;49.246;9.106;2022-07-23T02:07:05;21.90;99.90
19586;DHT22;9939;49.246;9.106;2022-07-23T02:09:32;21.90;99.90
19586;DHT22;9939;49.246;9.106;2022-07-23T02:11:59;21.80;99.90
19586;DHT22;9939;49.246;9.106;2022-07-23T02:14:26;21.90;99.90
19586;DHT22;9939;49.246;9.106;2022-07-23T02:16:54;22.00;99.90
19586;DHT22;9939;49.246;9.106;2022-07-23T02:19:21;22.10;99.90
19586;DHT22;9939;49.246;9.106;2022-07-23T02:21:48;21.80;99.90
19586;DHT22;9939;49.246;9.106;2022-07-23T02:24:18;21.80;99.90
19586;DHT22;9939;49.246;9.106;2022-07-23T02:26:45;21.60;99.90
19586;DHT22;9939;49.246;9.106;2022-07-23T02:29:12;21.60;99.90
19586;DHT22;9939;49.246;9.106;2022-07-23T02:31:39;21.50;99.90
19586;DHT22;9939;49.246;9.106;2022-07-23T02:34:07;21.60;99.90
19586;DHT22;9939;49.246;9.106;2022-07-23T02:36:34;21.40;99.90
19586;DHT22;9939;49.246;9.106;2022-07-23T02:39:03;21.20;99.90
19586;DHT22;9939;49.246;9.106;2022-07-23T02:41:32;21.20;99.90
19586;DHT22;9939;49.246;9.106;2022-07-23T02:43:59;21.10;99.90
19586;DHT22;9939;49.246;9.106;2022-07-23T02:46:26;21.30;99.90
19586;DHT22;9939;49.246;9.106;2022-07-23T02:48:55;21.30;99.90
19586;DHT22;9939;49.246;9.106;2022-07-23T02:51:22;21.30;99.90
19586;DHT22;9939;49.246;9.106;2022-07-23T02:53:55;21.30;99.90
19586;DHT22;9939;49.246;9.106;2022-07-23T02:56:23;21.30;99.90
19586;DHT22;9939;49.246;9.106;2022-07-23T02:58:49;21.30;99.90
19586;DHT22;9939;49.246;9.106;2022-07-23T03:01:16;21.30;99.90
19586;DHT22;9939;49.246;9.106;2022-07-23T03:03:46;21.20;99.90
19586;DHT22;9939;49.246;9.106;2022-07-23T03:06:14;21.20;99.90
19586;DHT22;9939;49.246;9.106;2022-07-23T03:08:41;21.20;99.90
19586;DHT22;9939;49.246;9.106;2022-07-23T03:11:08;21.30;99.90
19586;DHT22;9939;49.246;9.106;2022-07-23T03:13:40;21.30;99.90
19586;DHT22;9939;49.246;9.106;2022-07-23T03:16:07;21.30;99.90
19586;DHT22;9939;49.246;9.106;2022-07-23T03:18:36;21.40;99.90
19586;DHT22;9939;49.246;9.106;2022-07-23T03:21:07;21.50;99.90
19586;DHT22;9939;49.246;9.106;2022-07-23T03:23:34;21.40;99.90
19586;DHT22;9939;49.246;9.106;2022-07-23T03:26:01;21.40;99.90
19586;DHT22;9939;49.246;9.106;2022-07-23T03:28:28;21.30;99.90
19586;DHT22;9939;49.246;9.106;2022-07-23T03:30:55;21.30;99.90
19586;DHT22;9939;49.246;9.106;2022-07-23T03:33:23;21.20;99.90
19586;DHT22;9939;49.246;9.106;2022-07-23T03:35:50;21.10;99.90
19586;DHT22;9939;49.246;9.106;2022-07-23T03:38:24;21.10;99.90
19586;DHT22;9939;49.246;9.106;2022-07-23T03:40:51;21.10;99.90
19586;DHT22;9939;49.246;9.106;2022-07-23T03:43:17;21.10;99.90
19586;DHT22;9939;49.246;9.106;2022-07-23T03:45:45;20.90;99.90
19586;DHT22;9939;49.246;9.106;2022-07-23T03:48:13;20.90;99.90
19586;DHT22;9939;49.246;9.106;2022-07-23T03:50:40;20.90;99.90
19586;DHT22;9939;49.246;9.106;2022-07-23T03:53:07;20.90;99.90
19586;DHT22;9939;49.246;9.106;2022-07-23T03:55:34;20.80;99.90
19586;DHT22;9939;49.246;9.106;2022-07-23T03:58:02;20.80;99.90
19586;DHT22;9939;49.246;9.106;2022-07-23T04:00:29;20.70;99.90
19586;DHT22;9939;49.246;9.106;2022-07-23T04:02:55;20.70;99.90
19586;DHT22;9939;49.246;9.106;2022-07-23T04:05:22;20.60;99.90
19586;DHT22;9939;49.246;9.106;2022-07-23T04:07:55;20.60;99.90
19586;DHT22;9939;49.246;9.106;2022-07-23T04:10:23;20.50;99.90
19586;DHT22;9939;49.246;9.106;2022-07-23T04:12:50;20.50;99.90
19586;DHT22;9939;49.246;9.106;2022-07-23T04:15:17;20.50;99.90
19586;DHT22;9939;49.246;9.106;2022-07-23T04:17:44;20.50;99.90
19586;DHT22;9939;49.246;9.106;2022-07-23T04:20:13;20.60;99.90
19586;DHT22;9939;49.246;9.106;2022-07-23T04:22:47;20.50;99.90
19586;DHT22;9939;49.246;9.106;2022-07-23T04:25:13;20.40;99.90
19586;DHT22;9939;49.246;9.106;2022-07-23T04:27:44;20.60;99.90
19586;DHT22;9939;49.246;9.106;2022-07-23T04:30:11;20.60;99.90
19586;DHT22;9939;49.246;9.106;2022-07-23T04:32:38;20.60;99.90
19586;DHT22;9939;49.246;9.106;2022-07-23T04:35:12;20.60;99.90
19586;DHT22;9939;49.246;9.106;2022-07-23T04:37:39;20.80;99.90
19586;DHT22;9939;49.246;9.106;2022-07-23T04:40:07;20.80;99.90
19586;DHT22;9939;49.246;9.106;2022-07-23T04:42:35;20.80;99.90
19586;DHT22;9939;49.246;9.106;2022-07-23T04:45:03;20.90;99.90
19586;DHT22;9939;49.246;9.106;2022-07-23T04:47:30;20.80;99.90
19586;DHT22;9939;49.246;9.106;2022-07-23T04:49:58;20.70;99.90
19586;DHT22;9939;49.246;9.106;2022-07-23T04:52:25;20.70;99.90
19586;DHT22;9939;49.246;9.106;2022-07-23T04:54:53;20.70;99.90
19586;DHT22;9939;49.246;9.106;2022-07-23T04:57:19;20.70;99.90
19586;DHT22;9939;49.246;9.106;2022-07-23T04:59:46;20.80;99.90
19586;DHT22;9939;49.246;9.106;2022-07-23T05:02:14;20.80;99.90
19586;DHT22;9939;49.246;9.106;2022-07-23T05:04:41;20.90;99.90
19586;DHT22;9939;49.246;9.106;2022-07-23T05:07:08;20.90;99.90
19586;DHT22;9939;49.246;9.106;2022-07-23T05:09:35;20.90;99.90
19586;DHT22;9939;49.246;9.106;2022-07-23T05:12:02;20.90;99.90
19586;DHT22;9939;49.246;9.106;2022-07-23T05:14:33;21.00;99.90
19586;DHT22;9939;49.246;9.106;2022-07-23T05:17:00;20.90;99.90
19586;DHT22;9939;49.246;9.106;2022-07-23T05:19:27;20.90;99.90
19586;DHT22;9939;49.246;9.106;2022-07-23T05:21:54;21.00;99.90
19586;DHT22;9939;49.246;9.106;2022-07-23T05:24:21;21.20;99.90
19586;DHT22;9939;49.246;9.106;2022-07-23T05:26:50;21.20;99.90
19586;DHT22;9939;49.246;9.106;2022-07-23T05:29:17;21.30;99.90
19586;DHT22;9939;49.246;9.106;2022-07-23T05:31:44;21.20;99.90
19586;DHT22;9939;49.246;9.106;2022-07-23T05:34:12;21.10;99.90
19586;DHT22;9939;49.246;9.106;2022-07-23T05:36:44;21.20;99.90
19586;DHT22;9939;49.246;9.106;2022-07-23T05:39:11;21.10;99.90
19586;DHT22;9939;49.246;9.106;2022-07-23T05:41:38;20.90;99.90
19586;DHT22;9939;49.246;9.106;2022-07-23T05:44:05;20.70;99.90
19586;DHT22;9939;49.246;9.106;2022-07-23T05:46:36;20.50;99.90
19586;DHT22;9939;49.246;9.106;2022-07-23T05:49:07;20.60;99.90
19586;DHT22;9939;49.246;9.106;2022-07-23T05:51:57;20.70;99.90
19586;DHT22;9939;49.246;9.106;2022-07-23T05:54:39;20.80;99.90
19586;DHT22;9939;49.246;9.106;2022-07-23T05:57:06;20.90;99.90
19586;DHT22;9939;49.246;9.106;2022-07-23T05:59:34;21.00;99.90
19586;DHT22;9939;49.246;9.106;2022-07-23T06:02:01;21.10;99.90
19586;DHT22;9939;49.246;9.106;2022-07-23T06:04:28;21.10;99.90
19586;DHT22;9939;49.246;9.106;2022-07-23T06:07:13;21.10;99.90
19586;DHT22;9939;49.246;9.106;2022-07-23T06:09:40;21.10;99.90
19586;DHT22;9939;49.246;9.106;2022-07-23T06:12:07;21.00;99.90
19586;DHT22;9939;49.246;9.106;2022-07-23T06:14:34;21.00;99.90
19586;DHT22;9939;49.246;9.106;2022-07-23T06:17:01;21.00;99.90
19586;DHT22;9939;49.246;9.106;2022-07-23T06:19:32;21.20;99.90
19586;DHT22;9939;49.246;9.106;2022-07-23T06:21:59;21.10;99.90
19586;DHT22;9939;49.246;9.106;2022-07-23T06:24:27;21.10;99.90
19586;DHT22;9939;49.246;9.106;2022-07-23T06:26:54;21.20;99.90
19586;DHT22;9939;49.246;9.106;2022-07-23T06:29:21;21.30;99.90
19586;DHT22;9939;49.246;9.106;2022-07-23T06:31:48;21.50;99.90
19586;DHT22;9939;49.246;9.106;2022-07-23T06:34:15;21.80;99.90
19586;DHT22;9939;49.246;9.106;2022-07-23T06:36:41;22.10;99.90
19586;DHT22;9939;49.246;9.106;2022-07-23T06:39:08;22.30;99.90
19586;DHT22;9939;49.246;9.106;2022-07-23T06:41:37;22.50;99.90
19586;DHT22;9939;49.246;9.106;2022-07-23T06:44:04;22.70;99.90
19586;DHT22;9939;49.246;9.106;2022-07-23T06:46:34;22.70;99.90
19586;DHT22;9939;49.246;9.106;2022-07-23T06:49:01;22.80;99.90
19586;DHT22;9939;49.246;9.106;2022-07-23T06:51:29;22.80;99.90
19586;DHT22;9939;49.246;9.106;2022-07-23T06:53:56;22.70;99.90
19586;DHT22;9939;49.246;9.106;2022-07-23T06:56:23;22.80;99.90
19586;DHT22;9939;49.246;9.106;2022-07-23T06:58:50;22.60;99.90
19586;DHT22;9939;49.246;9.106;2022-07-23T07:01:17;22.50;99.90
19586;DHT22;9939;49.246;9.106;2022-07-23T07:03:44;22.30;99.90
19586;DHT22;9939;49.246;9.106;2022-07-23T07:06:11;22.30;99.90
19586;DHT22;9939;49.246;9.106;2022-07-23T07:08:38;22.30;99.90
19586;DHT22;9939;49.246;9.106;2022-07-23T07:11:04;22.30;99.90
19586;DHT22;9939;49.246;9.106;2022-07-23T07:13:31;22.30;99.90
19586;DHT22;9939;49.246;9.106;2022-07-23T07:15:58;22.60;99.90
19586;DHT22;9939;49.246;9.106;2022-07-23T07:18:25;22.80;99.90
19586;DHT22;9939;49.246;9.106;2022-07-23T07:20:52;22.90;99.90
19586;DHT22;9939;49.246;9.106;2022-07-23T07:23:22;22.90;99.90
19586;DHT22;9939;49.246;9.106;2022-07-23T07:25:49;22.80;99.90
19586;DHT22;9939;49.246;9.106;2022-07-23T07:28:16;23.10;99.90
19586;DHT22;9939;49.246;9.106;2022-07-23T07:30:43;23.10;99.90
19586;DHT22;9939;49.246;9.106;2022-07-23T07:33:10;23.30;99.90
19586;DHT22;9939;49.246;9.106;2022-07-23T07:35:37;23.40;99.90
19586;DHT22;9939;49.246;9.106;2022-07-23T07:38:04;23.50;99.90
19586;DHT22;9939;49.246;9.106;2022-07-23T07:40:30;23.30;99.90
19586;DHT22;9939;49.246;9.106;2022-07-23T07:43:00;23.40;99.90
19586;DHT22;9939;49.246;9.106;2022-07-23T07:45:28;23.80;99.90
19586;DHT22;9939;49.246;9.106;2022-07-23T07:47:55;24.10;99.90
19586;DHT22;9939;49.246;9.106;2022-07-23T07:50:22;24.60;99.90
19586;DHT22;9939;49.246;9.106;2022-07-23T07:52:49;24.90;99.90
19586;DHT22;9939;49.246;9.106;2022-07-23T07:55:16;25.20;99.90
19586;DHT22;9939;49.246;9.106;2022-07-23T07:57:43;25.70;99.90
19586;DHT22;9939;49.246;9.106;2022-07-23T08:00:15;26.00;99.90
19586;DHT22;9939;49.246;9.106;2022-07-23T08:02:44;26.10;99.90
19586;DHT22;9939;49.246;9.106;2022-07-23T08:05:12;26.40;99.90
19586;DHT22;9939;49.246;9.106;2022-07-23T08:07:39;26.60;99.90
19586;DHT22;9939;49.246;9.106;2022-07-23T08:10:08;26.70;99.90
19586;DHT22;9939;49.246;9.106;2022-07-23T08:12:48;26.50;99.90
19586;DHT22;9939;49.246;9.106;2022-07-23T08:15:17;26.60;99.90
19586;DHT22;9939;49.246;9.106;2022-07-23T08:17:45;26.40;99.90
19586;DHT22;9939;49.246;9.106;2022-07-23T08:20:15;25.80;99.90
19586;DHT22;9939;49.246;9.106;2022-07-23T08:25:29;25.90;99.90
19586;DHT22;9939;49.246;9.106;2022-07-23T08:27:57;26.00;99.90
19586;DHT22;9939;49.246;9.106;2022-07-23T08:30:25;26.00;99.90
19586;DHT22;9939;49.246;9.106;2022-07-23T08:35:24;26.00;99.90
19586;DHT22;9939;49.246;9.106;2022-07-23T08:37:51;26.30;99.90
19586;DHT22;9939;49.246;9.106;2022-07-23T08:40:18;26.30;99.90
19586;DHT22;9939;49.246;9.106;2022-07-23T08:42:48;26.10;99.90
19586;DHT22;9939;49.246;9.106;2022-07-23T08:45:20;25.80;99.90
19586;DHT22;9939;49.246;9.106;2022-07-23T08:47:52;25.60;99.90
19586;DHT22;9939;49.246;9.106;2022-07-23T08:50:20;25.80;99.90
19586;DHT22;9939;49.246;9.106;2022-07-23T08:52:51;26.10;99.90
19586;DHT22;9939;49.246;9.106;2022-07-23T08:55:20;26.60;99.90
19586;DHT22;9939;49.246;9.106;2022-07-23T08:57:52;26.90;99.90
19586;DHT22;9939;49.246;9.106;2022-07-23T09:00:20;27.50;99.90
19586;DHT22;9939;49.246;9.106;2022-07-23T09:02:48;28.00;99.90
19586;DHT22;9939;49.246;9.106;2022-07-23T09:05:17;28.20;99.90
19586;DHT22;9939;49.246;9.106;2022-07-23T09:08:07;28.00;99.90
19586;DHT22;9939;49.246;9.106;2022-07-23T09:16:04;27.80;99.90
19586;DHT22;9939;49.246;9.106;2022-07-23T09:18:37;28.20;99.90
19586;DHT22;9939;49.246;9.106;2022-07-23T09:21:08;28.40;99.90
19586;DHT22;9939;49.246;9.106;2022-07-23T09:23:56;27.90;99.90
19586;DHT22;9939;49.246;9.106;2022-07-23T09:31:50;29.60;99.90
19586;DHT22;9939;49.246;9.106;2022-07-23T09:34:25;29.90;99.90
19586;DHT22;9939;49.246;9.106;2022-07-23T09:37:15;30.30;99.90
19586;DHT22;9939;49.246;9.106;2022-07-23T09:39:45;30.90;99.90
19586;DHT22;9939;49.246;9.106;2022-07-23T09:44:48;31.20;99.90
19586;DHT22;9939;49.246;9.106;2022-07-23T09:47:15;31.50;99.90
19586;DHT22;9939;49.246;9.106;2022-07-23T09:50:03;32.60;99.90
19586;DHT22;9939;49.246;9.106;2022-07-23T09:52:35;32.30;99.90
19586;DHT22;9939;49.246;9.106;2022-07-23T09:55:04;32.00;99.90
19586;DHT22;9939;49.246;9.106;2022-07-23T09:57:32;32.60;99.90
19586;DHT22;9939;49.246;9.106;2022-07-23T10:00:04;33.20;99.90
19586;DHT22;9939;49.246;9.106;2022-07-23T10:02:32;33.90;99.90
19586;DHT22;9939;49.246;9.106;2022-07-23T10:05:30;33.50;99.90
19586;DHT22;9939;49.246;9.106;2022-07-23T10:08:32;34.20;99.90
19586;DHT22;9939;49.246;9.106;2022-07-23T10:11:22;34.50;99.90
19586;DHT22;9939;49.246;9.106;2022-07-23T10:13:58;34.20;99.90
19586;DHT22;9939;49.246;9.106;2022-07-23T10:16:41;34.10;99.90
19586;DHT22;9939;49.246;9.106;2022-07-23T10:19:08;33.70;99.90
19586;DHT22;9939;49.246;9.106;2022-07-23T10:21:50;34.50;99.90
19586;DHT22;9939;49.246;9.106;2022-07-23T10:30:05;35.00;99.90
19586;DHT22;9939;49.246;9.106;2022-07-23T10:35:09;34.70;99.30
19586;DHT22;9939;49.246;9.106;2022-07-23T10:37:43;34.60;99.90
19586;DHT22;9939;49.246;9.106;2022-07-23T10:40:22;35.20;99.00
19586;DHT22;9939;49.246;9.106;2022-07-23T10:42:51;36.10;98.40
19586;DHT22;9939;49.246;9.106;2022-07-23T10:45:32;36.50;98.50
19586;DHT22;9939;49.246;9.106;2022-07-23T10:48:22;36.40;97.70
19586;DHT22;9939;49.246;9.106;2022-07-23T10:51:14;36.30;97.80
19586;DHT22;9939;49.246;9.106;2022-07-23T10:53:57;36.40;97.00
19586;DHT22;9939;49.246;9.106;2022-07-23T10:59:25;36.90;96.40
19586;DHT22;9939;49.246;9.106;2022-07-23T11:01:52;37.10;94.90
19586;DHT22;9939;49.246;9.106;2022-07-23T11:04:19;36.90;94.60
19586;DHT22;9939;49.246;9.106;2022-07-23T11:07:07;37.20;94.10
19586;DHT22;9939;49.246;9.106;2022-07-23T11:09:42;36.30;95.00
19586;DHT22;9939;49.246;9.106;2022-07-23T11:15:10;35.90;95.10
19586;DHT22;9939;49.246;9.106;2022-07-23T11:22:37;36.10;94.00
19586;DHT22;9939;49.246;9.106;2022-07-23T11:25:05;36.70;92.80
19586;DHT22;9939;49.246;9.106;2022-07-23T11:27:43;35.80;92.70
19586;DHT22;9939;49.246;9.106;2022-07-23T11:35:41;37.00;92.80
19586;DHT22;9939;49.246;9.106;2022-07-23T11:38:19;36.80;92.60
19586;DHT22;9939;49.246;9.106;2022-07-23T11:40:54;37.00;92.70
19586;DHT22;9939;49.246;9.106;2022-07-23T11:43:24;36.80;93.20
19586;DHT22;9939;49.246;9.106;2022-07-23T11:45:58;36.40;92.80
19586;DHT22;9939;49.246;9.106;2022-07-23T11:48:30;36.80;92.80
19586;DHT22;9939;49.246;9.106;2022-07-23T11:51:02;36.30;92.70
19586;DHT22;9939;49.246;9.106;2022-07-23T11:53:32;36.30;92.40
19586;DHT22;9939;49.246;9.106;2022-07-23T11:56:08;36.50;92.00
19586;DHT22;9939;49.246;9.106;2022-07-23T11:58:37;36.20;92.30
19586;DHT22;9939;49.246;9.106;2022-07-23T12:01:04;37.10;91.40
19586;DHT22;9939;49.246;9.106;2022-07-23T12:03:32;36.50;91.90
19586;DHT22;9939;49.246;9.106;2022-07-23T12:06:00;36.10;92.80
19586;DHT22;9939;49.246;9.106;2022-07-23T12:08:27;36.60;92.70
19586;DHT22;9939;49.246;9.106;2022-07-23T12:10:54;36.30;93.00
19586;DHT22;9939;49.246;9.106;2022-07-23T12:13:21;37.20;93.00
19586;DHT22;9939;49.246;9.106;2022-07-23T12:15:56;38.20;92.20
19586;DHT22;9939;49.246;9.106;2022-07-23T12:18:25;38.90;90.90
19586;DHT22;9939;49.246;9.106;2022-07-23T12:20:57;39.00;90.50
19586;DHT22;9939;49.246;9.106;2022-07-23T12:23:26;38.90;91.40
19586;DHT22;9939;49.246;9.106;2022-07-23T12:25:53;38.50;91.10
19586;DHT22;9939;49.246;9.106;2022-07-23T12:28:27;39.50;90.50
19586;DHT22;9939;49.246;9.106;2022-07-23T12:30:55;40.00;89.30
19586;DHT22;9939;49.246;9.106;2022-07-23T12:33:38;38.60;89.20
19586;DHT22;9939;49.246;9.106;2022-07-23T12:36:07;40.70;87.60
19586;DHT22;9939;49.246;9.106;2022-07-23T12:38:47;40.80;84.90
19586;DHT22;9939;49.246;9.106;2022-07-23T12:41:15;39.80;86.40
19586;DHT22;9939;49.246;9.106;2022-07-23T12:43:44;39.80;87.10
19586;DHT22;9939;49.246;9.106;2022-07-23T12:46:13;37.60;90.70
19586;DHT22;9939;49.246;9.106;2022-07-23T12:51:22;39.10;88.90
19586;DHT22;9939;49.246;9.106;2022-07-23T12:53:56;39.90;87.60
19586;DHT22;9939;49.246;9.106;2022-07-23T12:56:34;40.30;86.40
19586;DHT22;9939;49.246;9.106;2022-07-23T12:59:09;39.90;85.50
19586;DHT22;9939;49.246;9.106;2022-07-23T13:01:57;40.00;85.10
19586;DHT22;9939;49.246;9.106;2022-07-23T13:04:28;40.50;84.00
19586;DHT22;9939;49.246;9.106;2022-07-23T13:06:58;39.90;84.50
19586;DHT22;9939;49.246;9.106;2022-07-23T13:09:28;41.90;82.20
19586;DHT22;9939;49.246;9.106;2022-07-23T13:11:59;43.50;78.00
19586;DHT22;9939;49.246;9.106;2022-07-23T13:14:27;43.20;78.40
19586;DHT22;9939;49.246;9.106;2022-07-23T13:16:55;41.60;77.90
19586;DHT22;9939;49.246;9.106;2022-07-23T13:19:25;40.90;79.20
19586;DHT22;9939;49.246;9.106;2022-07-23T13:21:53;40.40;78.80
19586;DHT22;9939;49.246;9.106;2022-07-23T13:24:21;42.00;78.70
19586;DHT22;9939;49.246;9.106;2022-07-23T13:26:49;41.20;78.50
19586;DHT22;9939;49.246;9.106;2022-07-23T13:29:17;40.10;78.40
19586;DHT22;9939;49.246;9.106;2022-07-23T13:31:46;40.80;77.60
19586;DHT22;9939;49.246;9.106;2022-07-23T13:34:14;39.90;79.10
19586;DHT22;9939;49.246;9.106;2022-07-23T13:36:41;38.60;81.50
19586;DHT22;9939;49.246;9.106;2022-07-23T13:39:10;36.80;83.10
19586;DHT22;9939;49.246;9.106;2022-07-23T13:41:38;37.30;83.70
19586;DHT22;9939;49.246;9.106;2022-07-23T13:44:05;38.20;82.10
19586;DHT22;9939;49.246;9.106;2022-07-23T13:46:34;37.90;82.50
19586;DHT22;9939;49.246;9.106;2022-07-23T13:49:01;37.30;84.10
19586;DHT22;9939;49.246;9.106;2022-07-23T13:51:29;37.50;83.60
19586;DHT22;9939;49.246;9.106;2022-07-23T13:53:56;38.30;81.10
19586;DHT22;9939;49.246;9.106;2022-07-23T13:56:25;39.70;80.90
19586;DHT22;9939;49.246;9.106;2022-07-23T13:58:52;38.30;83.00
19586;DHT22;9939;49.246;9.106;2022-07-23T14:01:19;36.80;84.90
19586;DHT22;9939;49.246;9.106;2022-07-23T14:03:46;36.40;86.00
19586;DHT22;9939;49.246;9.106;2022-07-23T14:06:14;36.90;84.80
19586;DHT22;9939;49.246;9.106;2022-07-23T14:08:43;37.20;85.70
19586;DHT22;9939;49.246;9.106;2022-07-23T14:11:12;37.80;82.80
19586;DHT22;9939;49.246;9.106;2022-07-23T14:13:39;39.50;81.40
19586;DHT22;9939;49.246;9.106;2022-07-23T14:16:07;41.70;77.30
19586;DHT22;9939;49.246;9.106;2022-07-23T14:18:34;42.00;75.50
19586;DHT22;9939;49.246;9.106;2022-07-23T14:21:02;43.60;74.40
19586;DHT22;9939;49.246;9.106;2022-07-23T14:23:29;42.90;73.60
19586;DHT22;9939;49.246;9.106;2022-07-23T14:25:56;42.60;73.30
19586;DHT22;9939;49.246;9.106;2022-07-23T14:28:23;40.80;76.20
19586;DHT22;9939;49.246;9.106;2022-07-23T14:30:50;38.10;79.80
19586;DHT22;9939;49.246;9.106;2022-07-23T14:33:18;37.70;82.10
19586;DHT22;9939;49.246;9.106;2022-07-23T14:35:47;36.00;84.50
19586;DHT22;9939;49.246;9.106;2022-07-23T14:38:13;35.70;85.20
19586;DHT22;9939;49.246;9.106;2022-07-23T14:40:41;34.60;86.80
19586;DHT22;9939;49.246;9.106;2022-07-23T14:43:09;34.10;88.50
19586;DHT22;9939;49.246;9.106;2022-07-23T14:45:38;34.90;87.80
19586;DHT22;9939;49.246;9.106;2022-07-23T14:48:05;36.30;85.20
19586;DHT22;9939;49.246;9.106;2022-07-23T14:50:32;37.50;84.80
19586;DHT22;9939;49.246;9.106;2022-07-23T14:52:59;39.10;82.00
19586;DHT22;9939;49.246;9.106;2022-07-23T14:55:26;38.90;81.10
19586;DHT22;9939;49.246;9.106;2022-07-23T14:57:52;37.20;82.30
19586;DHT22;9939;49.246;9.106;2022-07-23T15:00:19;37.40;84.40
19586;DHT22;9939;49.246;9.106;2022-07-23T15:02:53;35.50;85.70
19586;DHT22;9939;49.246;9.106;2022-07-23T15:05:22;34.30;89.30
19586;DHT22;9939;49.246;9.106;2022-07-23T15:07:49;33.70;90.20
19586;DHT22;9939;49.246;9.106;2022-07-23T15:10:16;33.40;91.30
19586;DHT22;9939;49.246;9.106;2022-07-23T15:12:48;33.20;91.70
19586;DHT22;9939;49.246;9.106;2022-07-23T15:15:15;34.00;91.60
19586;DHT22;9939;49.246;9.106;2022-07-23T15:17:41;35.60;89.50
19586;DHT22;9939;49.246;9.106;2022-07-23T15:20:09;36.40;88.20
19586;DHT22;9939;49.246;9.106;2022-07-23T15:22:36;36.70;86.90
19586;DHT22;9939;49.246;9.106;2022-07-23T15:25:03;34.90;89.00
19586;DHT22;9939;49.246;9.106;2022-07-23T15:27:31;33.90;90.90
19586;DHT22;9939;49.246;9.106;2022-07-23T15:29:58;32.80;92.10
19586;DHT22;9939;49.246;9.106;2022-07-23T15:32:25;32.00;92.60
19586;DHT22;9939;49.246;9.106;2022-07-23T15:34:54;31.50;92.70
19586;DHT22;9939;49.246;9.106;2022-07-23T15:37:21;31.10;93.10
19586;DHT22;9939;49.246;9.106;2022-07-23T15:39:50;31.10;93.70
19586;DHT22;9939;49.246;9.106;2022-07-23T15:42:19;31.30;93.50
19586;DHT22;9939;49.246;9.106;2022-07-23T15:44:46;31.20;93.80
19586;DHT22;9939;49.246;9.106;2022-07-23T15:47:15;31.00;93.90
19586;DHT22;9939;49.246;9.106;2022-07-23T15:49:43;30.90;94.20
19586;DHT22;9939;49.246;9.106;2022-07-23T15:52:11;32.20;93.30
19586;DHT22;9939;49.246;9.106;2022-07-23T15:54:39;34.80;91.30
19586;DHT22;9939;49.246;9.106;2022-07-23T15:57:07;36.10;88.00
19586;DHT22;9939;49.246;9.106;2022-07-23T15:59:34;36.90;86.00
19586;DHT22;9939;49.246;9.106;2022-07-23T16:02:03;38.50;83.30
19586;DHT22;9939;49.246;9.106;2022-07-23T16:04:31;40.20;80.10
19586;DHT22;9939;49.246;9.106;2022-07-23T16:06:59;40.20;80.80
19586;DHT22;9939;49.246;9.106;2022-07-23T16:09:26;40.60;79.00
19586;DHT22;9939;49.246;9.106;2022-07-23T16:11:54;39.80;79.20
19586;DHT22;9939;49.246;9.106;2022-07-23T16:14:21;40.10;78.80
19586;DHT22;9939;49.246;9.106;2022-07-23T16:16:48;39.90;79.80
19586;DHT22;9939;49.246;9.106;2022-07-23T16:19:15;38.80;80.60
19586;DHT22;9939;49.246;9.106;2022-07-23T16:21:43;38.80;81.10
19586;DHT22;9939;49.246;9.106;2022-07-23T16:24:10;39.30;79.90
19586;DHT22;9939;49.246;9.106;2022-07-23T16:26:37;39.40;80.00
19586;DHT22;9939;49.246;9.106;2022-07-23T16:29:03;39.90;79.40
19586;DHT22;9939;49.246;9.106;2022-07-23T16:31:32;40.20;79.30
19586;DHT22;9939;49.246;9.106;2022-07-23T16:33:59;40.40;77.70
19586;DHT22;9939;49.246;9.106;2022-07-23T16:36:26;39.50;78.80
19586;DHT22;9939;49.246;9.106;2022-07-23T16:38:53;38.60;80.10
19586;DHT22;9939;49.246;9.106;2022-07-23T16:41:20;38.50;81.00
19586;DHT22;9939;49.246;9.106;2022-07-23T16:43:47;38.90;80.40